createdAt,value
2023-07-24T00:01:01.627Z,96117.22
2023-07-24T00:03:28.317Z,96123.69
2023-07-24T00:05:59.742Z,96118.59
2023-07-24T00:08:26.529Z,96126.13
2023-07-24T00:10:53.214Z,96120.22
2023-07-24T00:13:20.023Z,96126.56
2023-07-24T00:15:46.800Z,96162.69
2023-07-24T00:18:13.792Z,96226.34
2023-07-24T00:20:40.588Z,96379.13
2023-07-24T00:23:07.270Z,96359.16
2023-07-24T00:25:33.927Z,96255.88
2023-07-24T00:28:00.557Z,96228.94
2023-07-24T00:30:27.206Z,96228.41
2023-07-24T00:32:53.874Z,96257.59
2023-07-24T00:35:20.747Z,96192.28
2023-07-24T00:37:47.386Z,96132.25
2023-07-24T00:40:14.152Z,96070.13
2023-07-24T00:42:40.794Z,96071.28
2023-07-24T00:45:08.042Z,96070.81
2023-07-24T00:47:34.755Z,96079.69
2023-07-24T00:50:01.759Z,96083.75
2023-07-24T00:52:28.643Z,96070.41
2023-07-24T00:54:55.911Z,96075.22
2023-07-24T00:57:24.731Z,96072.81
2023-07-24T00:59:51.544Z,96080.03
2023-07-24T01:02:18.204Z,96095.22
2023-07-24T01:04:45.441Z,96099.88
2023-07-24T01:07:12.369Z,96111.16
2023-07-24T01:09:39.074Z,96112.19
2023-07-24T01:12:11.342Z,96105.69
2023-07-24T01:14:45.929Z,96107.34
2023-07-24T01:17:19.824Z,96107.66
2023-07-24T01:19:53.616Z,96106.31
2023-07-24T01:22:29.303Z,96099.38
2023-07-24T01:25:15.673Z,96087.22
2023-07-24T01:27:46.853Z,96085.25
2023-07-24T01:30:17.932Z,96089.91
2023-07-24T01:32:45.150Z,96095.31
2023-07-24T01:35:12.720Z,96087.81
2023-07-24T01:37:41.792Z,96087.94
2023-07-24T01:40:12.183Z,96096.50
2023-07-24T01:42:39.638Z,96095.88
2023-07-24T01:45:06.833Z,96089.72
2023-07-24T01:47:33.986Z,96083.25
2023-07-24T01:50:00.893Z,96092.13
2023-07-24T01:52:27.617Z,96088.66
2023-07-24T01:54:54.266Z,96096.31
2023-07-24T01:57:20.980Z,96081.91
2023-07-24T01:59:47.666Z,96080.28
2023-07-24T02:02:14.348Z,96083.56
2023-07-24T02:04:41.197Z,96090.19
2023-07-24T02:07:07.947Z,96080.56
2023-07-24T02:09:34.595Z,96070.94
2023-07-24T02:12:03.002Z,96063.09
2023-07-24T02:14:30.209Z,96050.91
2023-07-24T02:16:57.267Z,96042.94
2023-07-24T02:19:23.978Z,96038.16
2023-07-24T02:21:51.128Z,96039.66
2023-07-24T02:24:17.763Z,96034.25
2023-07-24T02:26:44.500Z,96029.59
2023-07-24T02:29:11.512Z,96026.13
2023-07-24T02:31:38.223Z,96038.28
2023-07-24T02:34:05.092Z,96045.34
2023-07-24T02:36:32.605Z,96044.31
2023-07-24T02:38:59.170Z,96047.31
2023-07-24T02:41:25.974Z,96054.38
2023-07-24T02:43:52.622Z,96052.09
2023-07-24T02:46:19.373Z,96065.22
2023-07-24T02:48:46.384Z,96061.69
2023-07-24T02:51:13.203Z,96057.28
2023-07-24T02:53:39.933Z,96061.78
2023-07-24T02:56:07.106Z,96062.91
2023-07-24T02:58:33.795Z,96060.03
2023-07-24T03:01:05.407Z,96057.47
2023-07-24T03:03:32.260Z,96054.44
2023-07-24T03:05:59.424Z,96061.47
2023-07-24T03:08:26.347Z,96059.22
2023-07-24T03:10:53.151Z,96058.03
2023-07-24T03:13:19.839Z,96046.66
2023-07-24T03:15:55.209Z,96042.75
2023-07-24T03:18:22.283Z,96044.84
2023-07-24T03:20:49.047Z,96044.19
2023-07-24T03:23:15.974Z,96041.75
2023-07-24T03:25:42.653Z,96043.25
2023-07-24T03:28:09.446Z,96041.63
2023-07-24T03:30:36.416Z,96041.38
2023-07-24T03:33:03.654Z,96033.63
2023-07-24T03:35:30.417Z,96027.63
2023-07-24T03:37:57.274Z,96027.50
2023-07-24T03:40:24.057Z,96023.28
2023-07-24T03:42:50.755Z,96015.19
2023-07-24T03:45:17.840Z,96027.03
2023-07-24T03:47:44.700Z,96024.22
2023-07-24T03:50:11.479Z,96018.56
2023-07-24T03:52:38.128Z,96013.75
2023-07-24T03:55:05.246Z,96010.19
2023-07-24T03:57:32.101Z,96021.31
2023-07-24T03:59:58.685Z,96023.06
2023-07-24T04:02:25.529Z,96020.97
2023-07-24T04:04:52.206Z,96024.44
2023-07-24T04:07:18.848Z,96031.28
2023-07-24T04:09:45.511Z,96036.63
2023-07-24T04:12:12.141Z,96061.84
2023-07-24T04:14:38.788Z,96069.91
2023-07-24T04:17:05.945Z,96086.41
2023-07-24T04:19:34.027Z,96104.22
2023-07-24T04:22:00.720Z,96119.31
2023-07-24T04:24:27.438Z,96132.63
2023-07-24T04:26:54.086Z,96145.88
2023-07-24T04:29:24.820Z,96158.44
2023-07-24T04:31:51.776Z,96216.13
2023-07-24T04:34:18.591Z,96249.94
2023-07-24T04:36:45.309Z,96306.84
2023-07-24T04:39:12.030Z,96306.06
2023-07-24T04:41:38.778Z,96324.81
2023-07-24T04:44:05.421Z,96334.66
2023-07-24T04:46:32.618Z,96337.06
2023-07-24T04:48:59.485Z,96342.22
2023-07-24T04:51:27.141Z,96345.78
2023-07-24T04:53:55.021Z,96356.66
2023-07-24T04:56:21.748Z,96346.06
2023-07-24T04:58:48.767Z,96364.72
2023-07-24T05:01:15.808Z,96369.53
2023-07-24T05:03:42.397Z,96382.00
2023-07-24T05:06:09.104Z,96379.47
2023-07-24T05:08:36.818Z,96381.41
2023-07-24T05:11:03.488Z,96386.06
2023-07-24T05:13:30.082Z,96342.91
2023-07-24T05:15:56.867Z,96246.63
2023-07-24T05:18:23.657Z,96280.47
2023-07-24T05:20:53.462Z,96230.88
2023-07-24T05:23:20.311Z,96205.84
2023-07-24T05:25:47.555Z,96182.75
2023-07-24T05:28:14.718Z,96174.28
2023-07-24T05:30:41.372Z,96159.91
2023-07-24T05:33:08.385Z,96142.47
2023-07-24T05:35:35.642Z,96136.09
2023-07-24T05:38:02.374Z,96130.09
2023-07-24T05:40:29.674Z,96127.50
2023-07-24T05:42:56.332Z,96122.66
2023-07-24T05:45:23.128Z,96127.50
2023-07-24T05:47:49.862Z,96117.03
2023-07-24T05:50:16.646Z,96112.00
2023-07-24T05:52:43.658Z,96103.78
2023-07-24T05:55:10.355Z,96107.78
2023-07-24T05:57:37.541Z,96101.06
2023-07-24T06:00:08.017Z,96093.50
2023-07-24T06:02:34.958Z,96084.00
2023-07-24T06:05:01.739Z,96079.69
2023-07-24T06:07:28.800Z,96091.84
2023-07-24T06:09:56.100Z,96101.47
2023-07-24T06:12:22.731Z,96101.47
2023-07-24T06:14:49.624Z,96077.69
2023-07-24T06:17:16.221Z,96090.94
2023-07-24T06:19:42.835Z,96099.25
2023-07-24T06:22:09.770Z,96116.44
2023-07-24T06:24:36.451Z,96111.34
2023-07-24T06:27:03.377Z,96097.28
2023-07-24T06:29:30.480Z,96104.06
2023-07-24T06:31:57.423Z,96123.19
2023-07-24T06:34:24.126Z,96119.94
2023-07-24T06:36:51.052Z,96136.78
2023-07-24T06:39:17.719Z,96137.09
2023-07-24T06:41:44.591Z,96134.28
2023-07-24T06:44:11.315Z,96120.63
2023-07-24T06:46:37.985Z,96131.34
2023-07-24T06:49:04.691Z,96138.53
2023-07-24T06:51:31.524Z,96145.34
2023-07-24T06:53:58.333Z,96189.97
2023-07-24T06:56:25.029Z,96202.63
2023-07-24T06:58:51.848Z,96193.88
2023-07-24T07:01:18.616Z,96197.75
2023-07-24T07:03:45.503Z,96184.25
2023-07-24T07:06:28.124Z,96185.44
2023-07-24T07:08:55.201Z,96192.66
2023-07-24T07:11:22.058Z,96173.34
2023-07-24T07:13:48.812Z,96167.59
2023-07-24T07:16:17.993Z,96169.88
2023-07-24T07:18:44.850Z,96164.03
2023-07-24T07:21:11.517Z,96155.91
2023-07-24T07:23:38.246Z,96157.72
2023-07-24T07:26:04.929Z,96148.75
2023-07-24T07:28:31.599Z,96146.97
2023-07-24T07:30:58.685Z,96158.13
2023-07-24T07:33:26.085Z,96163.94
2023-07-24T07:35:52.891Z,96157.78
2023-07-24T07:38:20.383Z,96150.13
2023-07-24T07:40:47.109Z,96146.81
2023-07-24T07:43:13.782Z,96135.66
2023-07-24T07:45:40.548Z,96127.88
2023-07-24T07:48:07.532Z,96128.50
2023-07-24T07:50:34.236Z,96118.00
2023-07-24T07:53:01.155Z,96113.97
2023-07-24T07:55:27.852Z,96106.16
2023-07-24T07:57:54.560Z,96118.19
2023-07-24T08:00:21.503Z,96119.19
2023-07-24T08:02:48.322Z,96110.47
2023-07-24T08:05:21.418Z,96107.56
2023-07-24T08:07:48.925Z,96112.97
2023-07-24T08:10:18.771Z,96121.97
2023-07-24T08:12:45.663Z,96115.03
2023-07-24T08:15:12.766Z,96094.94
2023-07-24T08:17:40.442Z,96080.84
2023-07-24T08:20:07.706Z,96068.28
2023-07-24T08:22:34.583Z,96061.72
2023-07-24T08:25:01.336Z,96047.81
2023-07-24T08:27:28.179Z,96052.81
2023-07-24T08:29:55.032Z,96052.84
2023-07-24T08:32:21.942Z,96045.38
2023-07-24T08:34:48.846Z,96045.84
2023-07-24T08:37:15.573Z,96047.06
2023-07-24T08:39:42.767Z,96047.25
2023-07-24T08:42:13.811Z,96051.19
2023-07-24T08:44:41.070Z,96037.81
2023-07-24T08:47:13.106Z,96033.28
2023-07-24T08:49:43.783Z,96029.53
2023-07-24T08:52:19.736Z,96025.78
2023-07-24T08:54:51.032Z,96024.63
2023-07-24T08:57:18.112Z,96007.94
2023-07-24T08:59:44.857Z,96009.13
2023-07-24T09:02:11.582Z,96015.88
2023-07-24T09:04:38.360Z,96021.91
2023-07-24T09:07:05.955Z,96023.25
2023-07-24T09:09:32.791Z,96016.91
2023-07-24T09:12:01.291Z,96008.78
2023-07-24T09:14:33.743Z,96018.13
2023-07-24T09:17:11.433Z,96027.75
2023-07-24T09:19:39.036Z,96027.75
2023-07-24T09:22:17.747Z,96030.91
2023-07-24T09:24:59.222Z,96015.53
2023-07-24T09:27:30.064Z,96007.69
2023-07-24T09:29:58.982Z,96017.88
2023-07-24T09:32:28.179Z,96020.44
2023-07-24T09:34:57.901Z,96014.72
2023-07-24T09:37:33.783Z,96020.88
2023-07-24T09:40:00.949Z,96028.84
2023-07-24T09:42:52.833Z,96042.19
2023-07-24T09:45:27.845Z,96059.41
2023-07-24T09:48:01.764Z,96060.47
2023-07-24T09:50:32.796Z,96068.03
2023-07-24T09:53:00.656Z,96082.09
2023-07-24T09:55:34.495Z,96096.44
2023-07-24T09:58:01.818Z,96109.69
2023-07-24T10:00:29.172Z,96097.94
2023-07-24T10:02:57.181Z,96081.38
2023-07-24T10:05:24.616Z,96054.72
2023-07-24T10:07:53.331Z,96055.78
2023-07-24T10:10:22.207Z,96069.66
2023-07-24T10:12:50.561Z,96081.25
2023-07-24T10:15:17.966Z,96081.38
2023-07-24T10:17:44.823Z,96086.31
2023-07-24T10:20:13.209Z,96080.75
2023-07-24T10:22:44.404Z,96081.38
2023-07-24T10:25:12.467Z,96077.75
2023-07-24T10:27:48.110Z,96079.56
2023-07-24T10:30:28.318Z,96063.59
2023-07-24T10:33:13.881Z,96048.56
2023-07-24T10:35:46.865Z,96067.53
2023-07-24T10:38:15.694Z,96096.69
2023-07-24T10:40:43.769Z,96112.88
2023-07-24T10:43:12.695Z,96101.41
2023-07-24T10:45:59.674Z,96080.59
2023-07-24T10:48:27.184Z,96101.91
2023-07-24T10:50:55.012Z,96159.50
2023-07-24T10:53:24.295Z,96170.38
2023-07-24T10:55:52.879Z,96207.53
2023-07-24T10:58:19.929Z,96250.28
2023-07-24T11:00:48.632Z,96216.25
2023-07-24T11:03:20.374Z,96229.63
2023-07-24T11:05:48.580Z,96178.03
2023-07-24T11:08:20.141Z,96113.88
2023-07-24T11:10:48.635Z,96095.38
2023-07-24T11:13:16.860Z,96119.66
2023-07-24T11:15:43.733Z,96139.84
2023-07-24T11:18:11.570Z,96141.56
2023-07-24T11:20:51.709Z,96134.13
2023-07-24T11:23:19.103Z,96124.22
2023-07-24T11:25:46.937Z,96102.97
2023-07-24T11:28:15.592Z,96102.59
2023-07-24T11:30:43.609Z,96098.28
2023-07-24T11:33:11.687Z,96099.09
2023-07-24T11:35:41.693Z,96111.81
2023-07-24T11:38:12.224Z,96113.19
2023-07-24T11:40:44.888Z,96097.69
2023-07-24T11:43:19.644Z,96091.66
2023-07-24T11:45:53.293Z,96096.03
2023-07-24T11:48:25.488Z,96089.09
2023-07-24T11:50:55.757Z,96090.72
2023-07-24T11:53:31.423Z,96078.09
2023-07-24T11:56:04.604Z,96079.50
2023-07-24T11:58:31.449Z,96073.41
2023-07-24T12:00:58.300Z,96068.06
2023-07-24T12:03:30.841Z,96065.69
2023-07-24T12:05:58.143Z,96075.03
2023-07-24T12:08:36.279Z,96069.78
2023-07-24T12:11:03.797Z,96078.22
2023-07-24T12:13:32.778Z,96083.78
2023-07-24T12:15:59.502Z,96063.56
2023-07-24T12:18:26.214Z,96072.56
2023-07-24T12:20:52.937Z,96058.06
2023-07-24T12:23:19.635Z,96062.31
2023-07-24T12:25:46.371Z,96046.22
2023-07-24T12:28:13.040Z,96035.84
2023-07-24T12:30:40.678Z,96034.03
2023-07-24T12:33:07.398Z,96037.31
2023-07-24T12:35:34.037Z,96020.06
2023-07-24T12:38:00.761Z,96012.63
2023-07-24T12:40:27.496Z,96004.03
2023-07-24T12:42:54.683Z,95993.78
2023-07-24T12:45:21.566Z,96007.44
2023-07-24T12:47:48.523Z,96023.63
2023-07-24T12:50:15.325Z,96020.38
2023-07-24T12:52:42.192Z,96025.63
2023-07-24T12:55:09.692Z,96019.03
2023-07-24T12:57:36.615Z,96015.75
2023-07-24T13:00:04.129Z,96013.94
2023-07-24T13:02:31.097Z,95999.97
2023-07-24T13:04:58.094Z,95980.00
2023-07-24T13:07:24.854Z,95977.44
2023-07-24T13:09:51.529Z,95989.16
2023-07-24T13:12:18.555Z,95980.16
2023-07-24T13:14:45.470Z,95983.41
2023-07-24T13:17:12.186Z,95977.53
2023-07-24T13:19:39.007Z,95971.22
2023-07-24T13:22:06.065Z,95949.69
2023-07-24T13:24:33.141Z,95948.94
2023-07-24T13:26:59.915Z,95951.66
2023-07-24T13:29:26.930Z,95952.06
2023-07-24T13:31:54.183Z,95973.88
2023-07-24T13:34:21.369Z,95976.91
2023-07-24T13:36:48.543Z,95985.78
2023-07-24T13:39:15.255Z,95992.44
2023-07-24T13:41:42.381Z,95979.78
2023-07-24T13:44:09.837Z,95981.00
2023-07-24T13:46:39.747Z,95981.91
2023-07-24T13:49:07.248Z,95993.84
2023-07-24T13:51:33.890Z,96018.31
2023-07-24T13:54:02.548Z,96012.63
2023-07-24T13:56:30.913Z,96041.13
2023-07-24T13:58:57.872Z,96038.00
2023-07-24T14:01:24.797Z,96027.00
2023-07-24T14:03:51.607Z,96011.38
2023-07-24T14:06:18.505Z,95991.22
2023-07-24T14:08:45.140Z,95977.81
2023-07-24T14:11:12.318Z,95968.00
2023-07-24T14:13:39.180Z,95975.72
2023-07-24T14:16:06.030Z,95975.38
2023-07-24T14:18:32.730Z,95982.94
2023-07-24T14:21:00.716Z,95988.81
2023-07-24T14:23:27.760Z,95961.41
2023-07-24T14:25:54.550Z,95969.69
2023-07-24T14:28:21.289Z,96054.28
2023-07-24T14:30:49.151Z,96133.84
2023-07-24T14:33:16.053Z,96082.47
2023-07-24T14:35:43.252Z,96042.13
2023-07-24T14:38:10.073Z,96046.03
2023-07-24T14:40:36.845Z,96021.94
2023-07-24T14:43:07.257Z,96041.06
2023-07-24T14:45:35.046Z,96038.41
2023-07-24T14:48:01.921Z,96040.88
2023-07-24T14:50:30.161Z,96079.75
2023-07-24T14:52:56.966Z,96070.63
2023-07-24T14:55:23.829Z,96031.34
2023-07-24T14:57:50.649Z,96028.34
2023-07-24T15:00:17.950Z,96034.06
2023-07-24T15:02:44.967Z,96007.97
2023-07-24T15:05:11.904Z,95984.78
2023-07-24T15:07:39.008Z,96000.03
2023-07-24T15:10:06.533Z,96000.50
2023-07-24T15:12:33.264Z,95973.09
2023-07-24T15:15:01.176Z,95987.22
2023-07-24T15:17:28.224Z,95994.69
2023-07-24T15:19:55.135Z,95987.31
2023-07-24T15:22:24.370Z,95990.03
2023-07-24T15:24:51.405Z,95995.56
2023-07-24T15:27:18.153Z,95978.94
2023-07-24T15:29:44.911Z,95975.63
2023-07-24T15:32:13.297Z,95968.13
2023-07-24T15:34:40.271Z,95969.06
2023-07-24T15:37:07.488Z,95973.72
2023-07-24T15:39:34.383Z,95976.72
2023-07-24T15:42:01.052Z,95982.84
2023-07-24T15:44:27.847Z,95979.81
2023-07-24T15:46:54.768Z,95989.38
2023-07-24T15:49:24.326Z,95998.69
2023-07-24T15:51:51.220Z,95997.03
2023-07-24T15:54:18.147Z,95996.94
2023-07-24T15:56:45.106Z,95995.28
2023-07-24T15:59:11.949Z,96008.34
2023-07-24T16:01:38.873Z,95988.22
2023-07-24T16:04:05.884Z,95990.22
2023-07-24T16:06:32.749Z,95986.78
2023-07-24T16:09:01.513Z,95982.13
2023-07-24T16:11:29.286Z,95987.72
2023-07-24T16:13:56.551Z,95983.22
2023-07-24T16:16:23.298Z,95971.63
2023-07-24T16:19:13.983Z,95964.41
2023-07-24T16:21:41.013Z,95960.66
2023-07-24T16:24:07.770Z,95947.13
2023-07-24T16:26:36.379Z,95949.50
2023-07-24T16:29:04.857Z,95935.97
2023-07-24T16:31:35.832Z,95935.06
2023-07-24T16:34:04.244Z,95923.47
2023-07-24T16:36:34.092Z,95929.22
2023-07-24T16:39:06.973Z,95944.69
2023-07-24T16:41:34.816Z,95936.88
2023-07-24T16:44:02.994Z,95955.66
2023-07-24T16:46:31.352Z,95956.56
2023-07-24T16:48:58.422Z,95967.69
2023-07-24T16:51:25.189Z,95967.69
2023-07-24T16:53:52.102Z,95965.16
2023-07-24T16:56:18.829Z,95971.13
2023-07-24T16:58:45.564Z,95970.38
2023-07-24T17:01:12.534Z,95978.97
2023-07-24T17:03:39.516Z,95986.59
2023-07-24T17:06:07.383Z,95978.47
2023-07-24T17:08:34.203Z,95970.19
2023-07-24T17:11:01.111Z,95963.81
2023-07-24T17:13:27.995Z,95968.75
2023-07-24T17:15:54.736Z,95966.94
2023-07-24T17:18:21.790Z,95966.66
2023-07-24T17:20:51.265Z,95962.88
2023-07-24T17:23:18.332Z,95964.53
2023-07-24T17:25:45.082Z,95968.88
2023-07-24T17:28:12.159Z,95964.97
2023-07-24T17:30:39.786Z,95966.47
2023-07-24T17:33:06.712Z,95967.22
2023-07-24T17:35:34.149Z,95965.28
2023-07-24T17:38:00.897Z,95964.53
2023-07-24T17:40:28.036Z,95947.09
2023-07-24T17:42:54.886Z,95949.81
2023-07-24T17:45:21.917Z,95959.41
2023-07-24T17:47:49.116Z,95955.84
2023-07-24T17:50:15.998Z,95958.84
2023-07-24T17:52:42.817Z,95970.41
2023-07-24T17:55:09.869Z,95980.03
2023-07-24T17:57:36.614Z,95971.16
2023-07-24T18:00:04.606Z,95969.22
2023-07-24T18:02:31.405Z,95965.59
2023-07-24T18:04:58.333Z,95970.59
2023-07-24T18:07:25.109Z,95967.44
2023-07-24T18:09:52.078Z,95966.22
2023-07-24T18:12:19.605Z,95967.63
2023-07-24T18:14:46.333Z,95963.88
2023-07-24T18:17:13.014Z,95967.03
2023-07-24T18:19:39.810Z,95954.44
2023-07-24T18:22:06.606Z,95964.38
2023-07-24T18:24:33.638Z,95958.06
2023-07-24T18:27:00.337Z,95965.72
2023-07-24T18:29:27.023Z,95966.06
2023-07-24T18:31:54.622Z,95966.34
2023-07-24T18:34:21.550Z,95971.00
2023-07-24T18:36:48.462Z,95962.56
2023-07-24T18:39:16.022Z,95965.13
2023-07-24T18:41:45.299Z,95955.94
2023-07-24T18:44:13.975Z,95963.63
2023-07-24T18:46:40.852Z,95957.16
2023-07-24T18:49:07.729Z,95954.91
2023-07-24T18:51:34.654Z,95943.91
2023-07-24T18:54:01.570Z,95939.41
2023-07-24T18:56:29.377Z,95933.09
2023-07-24T18:58:56.112Z,95929.97
2023-07-24T19:01:22.918Z,95918.34
2023-07-24T19:03:49.715Z,95909.94
2023-07-24T19:06:21.227Z,95918.22
2023-07-24T19:08:49.117Z,95925.72
2023-07-24T19:11:19.291Z,95934.22
2023-07-24T19:13:46.207Z,95938.53
2023-07-24T19:16:12.919Z,95943.03
2023-07-24T19:18:41.184Z,95943.81
2023-07-24T19:21:08.187Z,95933.75
2023-07-24T19:23:35.200Z,95937.50
2023-07-24T19:26:02.773Z,95934.63
2023-07-24T19:28:30.081Z,95943.19
2023-07-24T19:31:00.170Z,95953.72
2023-07-24T19:33:27.339Z,95958.81
2023-07-24T19:36:02.185Z,95951.13
2023-07-24T19:38:29.328Z,95962.41
2023-07-24T19:41:00.743Z,95966.88
2023-07-24T19:43:28.160Z,95965.50
2023-07-24T19:45:54.991Z,95964.59
2023-07-24T19:48:22.540Z,95976.41
2023-07-24T19:50:50.627Z,95976.22
2023-07-24T19:53:19.973Z,95973.84
2023-07-24T19:55:51.501Z,95968.44
2023-07-24T19:58:32.122Z,95968.00
2023-07-24T20:01:00.938Z,95975.34
2023-07-24T20:03:28.520Z,95981.97
2023-07-24T20:05:56.790Z,95980.88
2023-07-24T20:08:24.740Z,95987.81
2023-07-24T20:10:52.565Z,95990.19
2023-07-24T20:13:19.541Z,95986.13
2023-07-24T20:15:46.966Z,95980.97
2023-07-24T20:18:14.527Z,95986.94
2023-07-24T20:20:47.973Z,95993.22
2023-07-24T20:23:16.635Z,95994.59
2023-07-24T20:25:46.718Z,95993.88
2023-07-24T20:28:13.971Z,95993.03
2023-07-24T20:30:40.796Z,95999.94
2023-07-24T20:33:07.505Z,96004.13
2023-07-24T20:35:34.568Z,96003.69
2023-07-24T20:38:06.271Z,96002.06
2023-07-24T20:40:34.222Z,95999.03
2023-07-24T20:43:02.327Z,95998.88
2023-07-24T20:45:29.125Z,95997.78
2023-07-24T20:47:56.356Z,95991.63
2023-07-24T20:50:23.332Z,95986.22
2023-07-24T20:52:50.454Z,95986.97
2023-07-24T20:55:17.483Z,95986.22
2023-07-24T20:57:44.286Z,95986.72
2023-07-24T21:00:11.724Z,95987.81
2023-07-24T21:02:38.807Z,95988.13
2023-07-24T21:05:06.028Z,95994.56
2023-07-24T21:07:32.724Z,95993.06
2023-07-24T21:09:59.512Z,95994.38
2023-07-24T21:12:26.801Z,95989.88
2023-07-24T21:14:54.368Z,95993.47
2023-07-24T21:17:21.209Z,95990.63
2023-07-24T21:19:48.650Z,95995.13
2023-07-24T21:22:15.475Z,96004.31
2023-07-24T21:24:42.684Z,96009.84
2023-07-24T21:27:10.454Z,96013.25
2023-07-24T21:29:37.192Z,96007.69
2023-07-24T21:32:04.530Z,96008.69
2023-07-24T21:34:31.549Z,96003.16
2023-07-24T21:36:58.428Z,96006.78
2023-07-24T21:39:25.378Z,96006.78
2023-07-24T21:41:52.465Z,96008.59
2023-07-24T21:44:19.377Z,96001.13
2023-07-24T21:46:46.299Z,96004.44
2023-07-24T21:49:13.609Z,96003.56
2023-07-24T21:51:40.399Z,95998.78
2023-07-24T21:54:07.227Z,95992.63
2023-07-24T21:56:34.272Z,95993.63
2023-07-24T21:59:01.127Z,95986.88
2023-07-24T22:01:27.934Z,95991.38
2023-07-24T22:03:54.888Z,95993.47
2023-07-24T22:06:22.000Z,95990.28
2023-07-24T22:08:48.990Z,95986.94
2023-07-24T22:11:16.882Z,95987.69
2023-07-24T22:13:44.748Z,95983.94
2023-07-24T22:16:12.434Z,95981.84
2023-07-24T22:18:39.237Z,95975.38
2023-07-24T22:21:06.056Z,95978.06
2023-07-24T22:23:33.890Z,95972.88
2023-07-24T22:26:03.606Z,95976.75
2023-07-24T22:28:30.448Z,95982.72
2023-07-24T22:30:57.533Z,95983.63
2023-07-24T22:33:24.452Z,95978.38
2023-07-24T22:36:00.276Z,95994.94
2023-07-24T22:38:28.202Z,95995.03
2023-07-24T22:40:55.013Z,95983.72
2023-07-24T22:43:21.752Z,95987.75
2023-07-24T22:45:48.623Z,95984.91
2023-07-24T22:48:15.563Z,95975.53
2023-07-24T22:50:42.262Z,95969.88
2023-07-24T22:53:08.957Z,95962.66
2023-07-24T22:55:35.704Z,95960.59
2023-07-24T22:58:02.455Z,95945.59
2023-07-24T23:00:29.140Z,95956.06
2023-07-24T23:02:55.844Z,95951.84
2023-07-24T23:05:22.528Z,95949.16
2023-07-24T23:07:54.128Z,95952.59
2023-07-24T23:10:20.805Z,95948.72
2023-07-24T23:12:48.604Z,95949.50
2023-07-24T23:15:15.677Z,95936.59
2023-07-24T23:17:42.458Z,95940.03
2023-07-24T23:20:09.743Z,95940.94
2023-07-24T23:22:36.528Z,95933.09
2023-07-24T23:25:03.492Z,95928.25
2023-07-24T23:27:30.172Z,95933.97
2023-07-24T23:29:57.008Z,95939.38
2023-07-24T23:32:23.677Z,95932.34
2023-07-24T23:34:50.316Z,95933.69
2023-07-24T23:37:17.397Z,95933.28
2023-07-24T23:39:44.088Z,95939.00
2023-07-24T23:42:10.809Z,95931.19
2023-07-24T23:44:37.503Z,95922.78
2023-07-24T23:47:04.353Z,95921.28
2023-07-24T23:49:31.748Z,95921.38
2023-07-24T23:51:58.654Z,95923.34
2023-07-24T23:54:25.329Z,95919.44
2023-07-24T23:56:52.008Z,95916.28
2023-07-24T23:59:18.670Z,95918.38
